KLBL/LBL METAR and TAF weather

Enter ICAO airport designator
Station Type Date Time Source
KLBL METAR 2019/02/16 17:56 UTC NOAA

KLBL 161756Z AUTO 17017KT 8SM OVC003 M05/M06 A2966 RMK AO2 SNE23 SLP075 P0000 60000 T10501056 11050 21072 58032 FZRANO


Station Type Date Time Source
KLBL Decoded METAR 2019/02/16 17:56 UTC NOAA

Liberal, Liberal Municipal Airport, KS, United States (KLBL) 37-03N 100-58W
Feb 16, 2019 - 12:56 PM EST / 2019.02.16 1756 UTC
Wind: from the S (170 degrees) at 20 MPH (17 KT):0
Visibility: 8 mile(s):0
Sky conditions: overcast
Precipitation last hour: A trace
Temperature: 23.0 F (-5.0 C)
Windchill: 8 F (-13 C):1
Dew Point: 21.9 F (-5.6 C)
Relative Humidity: 95%
Pressure (altimeter): 29.66 in. Hg (1004 hPa)
Pressure tendency: 0.09 inches (3.2 hPa) lower than three hours ago
ob: KLBL 161756Z AUTO 17017KT 8SM OVC003 M05/M06 A2966 RMK AO2 SNE23 SLP075 P0000 60000 T10501056 11050 21072 58032 FZRANO
cycle: 18

Station Type Date Time Source
KLBL TAF 2019/02/16 18:24 UTC NOAA

TAF KLBL 161722Z 1618/1718 17013G19KT 1/2SM FG OVC003
FM162000 17013KT 4SM BR OVC008
FM170200 06007KT P6SM BKN020
FM170700 35005KT P6SM SCT045


Example: see airport list